createdAt,value
2022-09-13T00:00:53.234Z,5.13
2022-09-13T00:03:20.447Z,4.65
2022-09-13T00:05:48.009Z,5.13
2022-09-13T00:08:15.092Z,5.43
2022-09-13T00:10:42.904Z,5.22
2022-09-13T00:13:11.848Z,4.90
2022-09-13T00:15:44.428Z,4.97
2022-09-13T00:18:11.075Z,5.05
2022-09-13T00:20:37.975Z,4.95
2022-09-13T00:23:04.742Z,4.82
2022-09-13T00:25:31.500Z,4.30
2022-09-13T00:27:58.092Z,4.43
2022-09-13T00:30:24.819Z,4.45
2022-09-13T00:32:51.421Z,4.75
2022-09-13T00:35:18.056Z,4.38
2022-09-13T00:37:44.676Z,4.70
2022-09-13T00:40:11.460Z,4.75
2022-09-13T00:42:38.570Z,4.20
2022-09-13T00:45:11.291Z,4.22
2022-09-13T00:47:57.742Z,4.15
2022-09-13T00:50:39.385Z,3.90
2022-09-13T00:53:12.055Z,3.85
2022-09-13T00:55:48.211Z,3.90
2022-09-13T00:58:22.145Z,4.35
2022-09-13T01:00:49.828Z,4.43
2022-09-13T01:03:19.715Z,3.90
2022-09-13T01:05:54.075Z,4.80
2022-09-13T01:08:22.991Z,4.43
2022-09-13T01:10:56.125Z,4.28
2022-09-13T01:13:32.259Z,3.53
2022-09-13T01:16:00.076Z,4.82
2022-09-13T01:18:27.207Z,4.43
2022-09-13T01:21:18.678Z,4.65
2022-09-13T01:24:00.351Z,4.90
2022-09-13T01:27:06.179Z,5.28
2022-09-13T01:29:41.552Z,4.88
2022-09-13T01:32:46.924Z,5.40
2022-09-13T01:35:23.743Z,5.05
2022-09-13T01:38:37.702Z,5.35
2022-09-13T01:41:34.485Z,5.07
2022-09-13T01:44:19.527Z,5.75
2022-09-13T01:47:11.540Z,5.35
2022-09-13T01:49:43.739Z,5.32
2022-09-13T01:55:27.281Z,5.00
2022-09-13T01:58:25.984Z,5.13
2022-09-13T02:01:10.707Z,4.60
2022-09-13T02:03:44.604Z,5.47
2022-09-13T02:06:18.471Z,5.20
2022-09-13T02:08:51.036Z,5.32
2022-09-13T02:11:22.319Z,5.10
2022-09-13T02:14:13.274Z,4.88
2022-09-13T02:16:47.318Z,5.25
2022-09-13T02:19:23.152Z,5.30
2022-09-13T02:21:55.952Z,5.03
2022-09-13T02:24:36.005Z,4.82
2022-09-13T02:27:10.362Z,5.03
2022-09-13T02:29:40.041Z,5.22
2022-09-13T02:32:22.995Z,4.60
2022-09-13T02:34:57.366Z,4.95
2022-09-13T02:37:27.147Z,4.90
2022-09-13T02:39:59.576Z,5.05
2022-09-13T02:42:31.795Z,4.63
2022-09-13T02:47:59.468Z,4.72
2022-09-13T02:50:53.900Z,5.05
2022-09-13T02:53:33.986Z,4.20
2022-09-13T02:56:21.849Z,4.68
2022-09-13T02:59:15.118Z,4.30
2022-09-13T03:01:45.407Z,4.07
2022-09-13T03:04:12.278Z,4.82
2022-09-13T03:06:41.206Z,4.15
2022-09-13T03:09:08.957Z,4.25
2022-09-13T03:11:53.603Z,4.20
2022-09-13T03:14:43.011Z,4.68
2022-09-13T03:17:32.756Z,4.75
2022-09-13T03:20:29.451Z,4.70
2022-09-13T03:23:07.272Z,5.10
2022-09-13T03:26:03.046Z,5.35
2022-09-13T03:29:08.551Z,6.03
2022-09-13T03:31:56.858Z,5.15
2022-09-13T03:34:31.098Z,5.28
2022-09-13T03:37:18.343Z,5.13
2022-09-13T03:40:12.844Z,5.18
2022-09-13T03:42:50.547Z,5.22
2022-09-13T03:45:21.545Z,5.20
2022-09-13T03:47:50.223Z,5.25
2022-09-13T03:50:21.162Z,4.78
2022-09-13T03:52:51.671Z,5.40
2022-09-13T03:55:21.372Z,5.82
2022-09-13T03:57:47.980Z,5.00
2022-09-13T04:00:15.270Z,4.80
2022-09-13T04:02:42.054Z,5.32
2022-09-13T04:05:08.702Z,5.63
2022-09-13T04:07:35.334Z,5.38
2022-09-13T04:10:01.964Z,5.75
2022-09-13T04:12:31.228Z,5.80
2022-09-13T04:14:58.137Z,6.22
2022-09-13T04:17:24.756Z,5.78
2022-09-13T04:19:51.361Z,6.05
2022-09-13T04:22:17.983Z,6.20
2022-09-13T04:24:44.660Z,6.60
2022-09-13T04:27:12.243Z,6.38
2022-09-13T04:29:38.852Z,5.82
2022-09-13T04:32:05.672Z,6.47
2022-09-13T04:34:32.336Z,6.15
2022-09-13T04:36:58.944Z,5.85
2022-09-13T04:39:25.625Z,6.50
2022-09-13T04:41:54.484Z,6.32
2022-09-13T04:44:23.830Z,5.97
2022-09-13T04:46:50.876Z,6.25
2022-09-13T04:49:20.006Z,5.90
2022-09-13T04:51:46.819Z,5.93
2022-09-13T04:54:16.003Z,5.70
2022-09-13T04:56:43.910Z,6.22
2022-09-13T04:59:11.861Z,6.32
2022-09-13T05:01:38.821Z,5.95
2022-09-13T05:04:07.249Z,5.90
2022-09-13T05:06:34.355Z,6.78
2022-09-13T05:09:01.149Z,6.93
2022-09-13T05:11:28.783Z,6.63
2022-09-13T05:14:00.232Z,6.32
2022-09-13T05:16:29.487Z,6.65
2022-09-13T05:18:57.053Z,6.60
2022-09-13T05:21:24.175Z,6.22
2022-09-13T05:23:52.209Z,6.72
2022-09-13T05:26:19.577Z,6.53
2022-09-13T05:28:46.215Z,6.60
2022-09-13T05:31:17.390Z,6.03
2022-09-13T05:33:45.100Z,5.75
2022-09-13T05:36:11.935Z,6.07
2022-09-13T05:38:38.622Z,6.00
2022-09-13T05:41:06.314Z,6.90
2022-09-13T05:43:35.467Z,6.75
2022-09-13T05:46:02.894Z,6.35
2022-09-13T05:48:30.568Z,6.45
2022-09-13T05:51:03.806Z,6.43
2022-09-13T05:53:30.991Z,6.53
2022-09-13T05:55:57.644Z,6.75
2022-09-13T05:58:24.335Z,6.07
2022-09-13T06:00:55.666Z,7.82
2022-09-13T06:03:23.897Z,6.70
2022-09-13T06:05:54.578Z,6.57
2022-09-13T06:08:22.492Z,5.65
2022-09-13T06:11:00.739Z,6.10
2022-09-13T06:13:28.159Z,6.30
2022-09-13T06:15:56.307Z,6.93
2022-09-13T06:18:24.629Z,6.30
2022-09-13T06:20:51.834Z,6.43
2022-09-13T06:23:18.539Z,7.28
2022-09-13T06:25:45.127Z,7.18
2022-09-13T06:28:11.822Z,6.70
2022-09-13T06:30:38.403Z,7.28
2022-09-13T06:33:05.079Z,6.85
2022-09-13T06:35:31.773Z,6.25
2022-09-13T06:37:58.652Z,6.30
2022-09-13T06:40:26.443Z,7.53
2022-09-13T06:42:53.319Z,6.50
2022-09-13T06:45:20.008Z,6.75
2022-09-13T06:47:46.658Z,6.53
2022-09-13T06:50:13.787Z,6.75
2022-09-13T06:52:40.459Z,7.55
2022-09-13T06:55:10.799Z,6.35
2022-09-13T06:57:39.243Z,7.72
2022-09-13T07:00:06.539Z,6.88
2022-09-13T07:02:33.163Z,6.72
2022-09-13T07:04:59.775Z,6.55
2022-09-13T07:07:26.476Z,6.13
2022-09-13T07:09:53.313Z,6.90
2022-09-13T07:12:20.814Z,6.78
2022-09-13T07:14:47.505Z,6.90
2022-09-13T07:17:14.568Z,7.03
2022-09-13T07:19:41.316Z,6.70
2022-09-13T07:22:08.003Z,6.57
2022-09-13T07:24:34.619Z,6.93
2022-09-13T07:27:01.214Z,6.93
2022-09-13T07:29:27.934Z,6.53
2022-09-13T07:31:56.580Z,7.13
2022-09-13T07:34:25.063Z,7.05
2022-09-13T07:36:52.517Z,6.60
2022-09-13T07:39:22.636Z,6.72
2022-09-13T07:41:50.635Z,7.35
2022-09-13T07:44:17.284Z,7.20
2022-09-13T07:46:44.061Z,6.80
2022-09-13T07:49:13.091Z,7.20
2022-09-13T07:51:42.514Z,7.03
2022-09-13T07:54:14.732Z,7.03
2022-09-13T07:59:13.197Z,7.07
2022-09-13T08:01:42.588Z,6.80
2022-09-13T08:04:14.694Z,7.80
2022-09-13T08:06:43.566Z,7.65
2022-09-13T08:09:11.139Z,7.60
2022-09-13T08:11:43.019Z,7.57
2022-09-13T08:14:12.174Z,7.50
2022-09-13T08:16:39.559Z,7.82
2022-09-13T08:19:07.730Z,7.18
2022-09-13T08:21:37.364Z,7.05
2022-09-13T08:24:05.693Z,7.15
2022-09-13T08:26:33.707Z,6.95
2022-09-13T08:29:02.987Z,7.55
2022-09-13T08:31:30.050Z,7.63
2022-09-13T08:33:57.706Z,7.55
2022-09-13T08:36:26.318Z,7.32
2022-09-13T08:38:55.742Z,6.30
2022-09-13T08:41:31.280Z,7.03
2022-09-13T08:44:09.055Z,7.13
2022-09-13T08:46:42.179Z,7.40
2022-09-13T08:49:23.964Z,7.03
2022-09-13T08:51:58.619Z,6.45
2022-09-13T08:54:25.550Z,6.18
2022-09-13T08:56:56.989Z,6.50
2022-09-13T08:59:57.719Z,6.00
2022-09-13T09:02:57.535Z,6.30
2022-09-13T09:05:29.330Z,5.78
2022-09-13T09:08:02.713Z,5.80
2022-09-13T09:10:33.590Z,6.03
2022-09-13T09:13:03.862Z,6.03
2022-09-13T09:15:47.881Z,6.80
2022-09-13T09:18:25.122Z,6.10
2022-09-13T09:20:54.836Z,6.13
2022-09-13T09:23:26.219Z,5.93
2022-09-13T09:26:17.861Z,5.25
2022-09-13T09:28:54.063Z,6.18
2022-09-13T09:31:38.833Z,5.93
2022-09-13T09:34:32.183Z,5.85
2022-09-13T09:37:16.754Z,5.68
2022-09-13T09:39:44.747Z,5.55
2022-09-13T09:42:18.229Z,5.30
2022-09-13T09:44:49.396Z,5.63
2022-09-13T09:47:20.265Z,5.60
2022-09-13T09:50:12.964Z,6.47
2022-09-13T09:53:06.873Z,6.00
2022-09-13T09:55:39.574Z,5.93
2022-09-13T09:58:08.478Z,5.93
2022-09-13T10:00:37.228Z,5.70
2022-09-13T10:03:18.883Z,5.38
2022-09-13T10:05:47.205Z,5.20
2022-09-13T10:08:28.372Z,5.60
2022-09-13T10:10:57.539Z,5.30
2022-09-13T10:13:28.530Z,5.18
2022-09-13T10:16:00.402Z,4.63
2022-09-13T10:18:47.388Z,5.32
2022-09-13T10:21:24.718Z,5.75
2022-09-13T10:23:51.959Z,5.20
2022-09-13T10:26:22.063Z,4.70
2022-09-13T10:29:16.395Z,4.57
2022-09-13T10:31:45.383Z,5.13
2022-09-13T10:34:17.835Z,4.22
2022-09-13T10:36:55.767Z,5.03
2022-09-13T10:39:23.867Z,4.82
2022-09-13T10:41:54.630Z,3.88
2022-09-13T10:44:28.361Z,4.82
2022-09-13T10:46:55.197Z,5.65
2022-09-13T10:49:47.209Z,5.18
2022-09-13T10:52:31.124Z,5.10
2022-09-13T10:55:18.849Z,5.07
2022-09-13T10:57:45.824Z,4.68
2022-09-13T11:00:21.285Z,5.38
2022-09-13T11:03:12.325Z,5.03
2022-09-13T11:06:09.956Z,4.47
2022-09-13T11:09:07.642Z,4.25
2022-09-13T11:11:52.346Z,3.88
2022-09-13T11:15:00.063Z,3.80
2022-09-13T11:18:03.907Z,3.50
2022-09-13T11:20:42.982Z,4.00
2022-09-13T11:23:28.390Z,3.15
2022-09-13T11:26:04.059Z,3.20
2022-09-13T11:28:48.928Z,3.47
2022-09-13T11:31:24.851Z,3.08
2022-09-13T11:33:57.345Z,3.28
2022-09-13T11:36:51.529Z,2.97
2022-09-13T11:39:39.824Z,3.20
2022-09-13T11:42:34.069Z,3.40
2022-09-13T11:45:22.239Z,3.40
2022-09-13T11:47:53.797Z,3.03
2022-09-13T11:50:28.565Z,4.07
2022-09-13T11:52:59.875Z,2.70
2022-09-13T11:55:32.354Z,3.50
2022-09-13T11:58:04.163Z,3.22
2022-09-13T12:00:30.970Z,3.30
2022-09-13T12:03:03.659Z,3.50
2022-09-13T12:05:41.443Z,2.97
2022-09-13T12:08:13.805Z,3.40
2022-09-13T12:11:02.605Z,3.25
2022-09-13T12:13:31.460Z,3.28
2022-09-13T12:16:02.333Z,3.85
2022-09-13T12:18:37.747Z,4.22
2022-09-13T12:21:29.113Z,3.15
2022-09-13T12:24:20.690Z,3.53
2022-09-13T12:26:59.339Z,3.28
2022-09-13T12:29:29.455Z,3.47
2022-09-13T12:32:02.491Z,3.60
2022-09-13T12:34:40.663Z,3.30
2022-09-13T12:40:03.932Z,3.30
2022-09-13T12:42:47.485Z,2.75
2022-09-13T12:45:24.034Z,2.88
2022-09-13T12:48:00.635Z,2.88
2022-09-13T12:50:44.179Z,3.17
2022-09-13T12:53:52.442Z,2.50
2022-09-13T12:56:24.880Z,2.22
2022-09-13T12:59:35.534Z,2.47
2022-09-13T13:02:04.837Z,2.42
2022-09-13T13:04:35.164Z,2.60
2022-09-13T13:07:08.248Z,2.60
2022-09-13T13:09:48.232Z,2.53
2022-09-13T13:12:31.782Z,2.25
2022-09-13T13:15:00.906Z,2.13
2022-09-13T13:17:36.451Z,2.50
2022-09-13T13:20:45.040Z,2.25
2022-09-13T13:23:25.712Z,2.10
2022-09-13T13:26:23.486Z,2.40
2022-09-13T13:29:13.507Z,2.00
2022-09-13T13:31:45.478Z,2.20
2022-09-13T13:34:15.086Z,2.13
2022-09-13T13:36:41.672Z,1.83
2022-09-13T13:39:23.551Z,2.00
2022-09-13T13:42:02.983Z,1.95
2022-09-13T13:44:29.941Z,2.78
2022-09-13T13:47:08.840Z,2.42
2022-09-13T13:49:41.335Z,2.38
2022-09-13T13:52:10.710Z,2.85
2022-09-13T13:54:44.228Z,2.33
2022-09-13T13:57:39.021Z,2.83
2022-09-13T14:00:08.995Z,2.40
2022-09-13T14:02:53.467Z,2.45
2022-09-13T14:05:49.965Z,1.90
2022-09-13T14:08:35.157Z,2.42
2022-09-13T14:11:19.246Z,2.20
2022-09-13T14:14:16.415Z,2.28
2022-09-13T14:17:15.207Z,2.00
2022-09-13T14:19:48.972Z,1.83
2022-09-13T14:22:26.565Z,2.20
2022-09-13T14:24:55.998Z,1.83
2022-09-13T14:27:34.646Z,2.08
2022-09-13T14:30:27.287Z,2.17
2022-09-13T14:32:57.265Z,1.70
2022-09-13T14:35:34.057Z,2.28
2022-09-13T14:38:38.365Z,2.72
2022-09-13T14:41:20.258Z,2.30
2022-09-13T14:43:48.442Z,1.98
2022-09-13T14:46:23.030Z,8.52
2022-09-13T14:49:06.801Z,2.13
2022-09-13T14:51:44.965Z,1.90
2022-09-13T14:54:17.332Z,1.90
2022-09-13T14:56:50.017Z,1.30
2022-09-13T14:59:26.886Z,1.85
2022-09-13T15:01:53.639Z,1.60
2022-09-13T15:04:23.573Z,22.50
2022-09-13T15:07:18.716Z,2.33
2022-09-13T15:09:46.377Z,1.67
2022-09-13T15:12:28.155Z,1.60
2022-09-13T15:15:26.262Z,1.42
2022-09-13T15:18:04.356Z,1.40
2022-09-13T15:23:28.497Z,2.05
2022-09-13T15:26:00.364Z,1.70
2022-09-13T15:28:30.116Z,1.50
2022-09-13T15:30:59.254Z,2.25
2022-09-13T15:33:31.475Z,1.40
2022-09-13T15:36:19.783Z,1.80
2022-09-13T15:39:16.998Z,1.73
2022-09-13T15:41:55.216Z,1.52
2022-09-13T15:44:22.798Z,1.30
2022-09-13T15:46:55.752Z,1.40
2022-09-13T15:49:27.071Z,1.30
2022-09-13T15:51:58.522Z,1.50
2022-09-13T15:54:31.275Z,1.58
2022-09-13T15:56:59.041Z,1.45
2022-09-13T15:59:25.810Z,1.80
2022-09-13T16:01:53.238Z,1.75
2022-09-13T16:04:19.981Z,1.60
2022-09-13T16:06:46.816Z,1.75
2022-09-13T16:09:22.639Z,1.90
2022-09-13T16:11:50.965Z,1.65
2022-09-13T16:14:19.117Z,1.63
2022-09-13T16:16:46.609Z,1.63
2022-09-13T16:19:21.226Z,1.90
2022-09-13T16:21:49.034Z,2.20
2022-09-13T16:24:16.637Z,1.90
2022-09-13T16:26:44.054Z,2.03
2022-09-13T16:29:11.898Z,3.10
2022-09-13T16:31:39.019Z,2.97
2022-09-13T16:34:06.179Z,3.50
2022-09-13T16:36:34.098Z,3.85
2022-09-13T16:39:01.068Z,4.40
2022-09-13T16:41:27.747Z,3.97
2022-09-13T16:43:55.299Z,3.78
2022-09-13T16:46:22.140Z,4.15
2022-09-13T16:48:56.549Z,3.95
2022-09-13T16:51:24.126Z,4.18
2022-09-13T16:53:52.320Z,3.72
2022-09-13T16:56:22.113Z,3.88
2022-09-13T16:58:50.419Z,3.67
2022-09-13T17:01:20.705Z,3.78
2022-09-13T17:03:50.789Z,3.50
2022-09-13T17:06:20.671Z,3.63
2022-09-13T17:08:53.422Z,4.90
2022-09-13T17:11:22.697Z,3.25
2022-09-13T17:13:49.596Z,3.60
2022-09-13T17:16:32.794Z,3.75
2022-09-13T17:19:02.918Z,4.20
2022-09-13T17:21:31.094Z,3.75
2022-09-13T17:23:58.153Z,4.28
2022-09-13T17:26:25.925Z,4.38
2022-09-13T17:28:53.201Z,4.80
2022-09-13T17:31:21.124Z,4.43
2022-09-13T17:33:48.568Z,4.80
2022-09-13T17:36:16.637Z,4.82
2022-09-13T17:38:43.406Z,3.90
2022-09-13T17:41:12.878Z,4.30
2022-09-13T17:43:42.500Z,4.65
2022-09-13T17:46:13.249Z,4.28
2022-09-13T17:48:40.044Z,4.63
2022-09-13T17:51:10.904Z,4.43
2022-09-13T17:53:43.663Z,4.13
2022-09-13T17:56:10.330Z,4.38
2022-09-13T17:58:37.043Z,4.63
2022-09-13T18:01:05.101Z,4.90
2022-09-13T18:03:32.149Z,4.32
2022-09-13T18:06:00.787Z,4.30
2022-09-13T18:08:29.218Z,4.63
2022-09-13T18:11:12.688Z,5.20
2022-09-13T18:13:42.559Z,4.72
2022-09-13T18:16:12.490Z,4.55
2022-09-13T18:18:43.821Z,5.10
2022-09-13T18:21:10.809Z,5.28
2022-09-13T18:23:37.481Z,5.03
2022-09-13T18:26:11.097Z,5.15
2022-09-13T18:28:39.382Z,5.35
2022-09-13T18:31:09.950Z,4.13
2022-09-13T18:33:37.070Z,3.45
2022-09-13T18:36:06.364Z,3.88
2022-09-13T18:38:41.281Z,3.97
2022-09-13T18:41:09.040Z,3.50
2022-09-13T18:43:36.948Z,4.38
2022-09-13T18:46:06.468Z,3.70
2022-09-13T18:48:38.987Z,4.72
2022-09-13T18:51:09.869Z,3.78
2022-09-13T18:53:37.203Z,4.20
2022-09-13T18:56:05.955Z,4.43
2022-09-13T18:58:35.161Z,4.40
2022-09-13T19:01:04.413Z,4.40
2022-09-13T19:03:32.076Z,4.18
2022-09-13T19:06:13.240Z,5.00
2022-09-13T19:08:40.504Z,3.88
2022-09-13T19:11:19.179Z,4.28
2022-09-13T19:13:57.177Z,4.20
2022-09-13T19:16:24.066Z,4.10
2022-09-13T19:18:53.552Z,4.38
2022-09-13T19:21:22.723Z,4.65
2022-09-13T19:23:59.499Z,4.22
2022-09-13T19:26:31.191Z,4.97
2022-09-13T19:29:04.323Z,4.47
2022-09-13T19:31:33.851Z,4.95
2022-09-13T19:34:02.109Z,3.22
2022-09-13T19:36:34.048Z,4.40
2022-09-13T19:39:01.628Z,3.55
2022-09-13T19:41:37.121Z,3.25
2022-09-13T19:44:28.202Z,3.72
2022-09-13T19:47:23.708Z,3.80
2022-09-13T19:49:41.644Z,4.18
2022-09-13T19:52:10.459Z,5.70
2022-09-13T19:54:57.475Z,5.63
2022-09-13T19:57:44.916Z,5.32
2022-09-13T20:00:12.316Z,4.25
2022-09-13T20:03:14.534Z,3.80
2022-09-13T20:05:41.217Z,4.30
2022-09-13T20:08:19.295Z,3.75
2022-09-13T20:10:47.008Z,4.00
2022-09-13T20:13:13.679Z,3.95
2022-09-13T20:15:40.418Z,3.67
2022-09-13T20:18:13.104Z,5.20
2022-09-13T20:20:42.613Z,5.53
2022-09-13T20:23:28.240Z,3.70
2022-09-13T20:25:55.007Z,4.10
2022-09-13T20:28:21.745Z,3.85
2022-09-13T20:30:55.784Z,3.42
2022-09-13T20:33:53.047Z,3.88
2022-09-13T20:38:49.158Z,3.13
2022-09-13T20:41:17.055Z,3.65
2022-09-13T20:43:43.683Z,3.40
2022-09-13T20:46:12.918Z,4.30
2022-09-13T20:48:40.297Z,4.30
2022-09-13T20:51:10.364Z,4.72
2022-09-13T20:53:37.773Z,3.92
2022-09-13T20:56:14.235Z,3.90
2022-09-13T20:58:42.468Z,3.60
2022-09-13T21:04:17.577Z,4.47
2022-09-13T21:07:02.475Z,3.20
2022-09-13T21:09:29.550Z,4.05
2022-09-13T21:11:56.192Z,4.22
2022-09-13T21:14:23.611Z,3.72
2022-09-13T21:16:50.285Z,3.88
2022-09-13T21:19:16.908Z,4.00
2022-09-13T21:21:43.808Z,3.53
2022-09-13T21:24:12.604Z,3.40
2022-09-13T21:26:42.213Z,5.60
2022-09-13T21:29:27.205Z,4.05
2022-09-13T21:31:55.791Z,4.90
2022-09-13T21:34:24.336Z,4.10
2022-09-13T21:36:51.228Z,4.55
2022-09-13T21:39:29.989Z,5.10
2022-09-13T21:41:56.720Z,3.75
2022-09-13T21:44:36.198Z,4.53
2022-09-13T21:47:03.116Z,4.03
2022-09-13T21:49:29.879Z,4.40
2022-09-13T21:51:56.652Z,5.18
2022-09-13T21:54:23.351Z,4.95
2022-09-13T21:56:52.312Z,3.97
2022-09-13T21:59:20.813Z,3.85
2022-09-13T22:01:51.283Z,3.65
2022-09-13T22:04:27.045Z,4.25
2022-09-13T22:06:54.076Z,3.38
2022-09-13T22:09:23.403Z,4.15
2022-09-13T22:11:50.174Z,5.05
2022-09-13T22:14:19.749Z,3.80
2022-09-13T22:16:46.764Z,4.43
2022-09-13T22:19:19.577Z,3.72
2022-09-13T22:21:48.578Z,3.78
2022-09-13T22:24:20.831Z,3.47
2022-09-13T22:26:49.212Z,3.88
2022-09-13T22:29:16.933Z,2.85
2022-09-13T22:31:45.408Z,3.33
2022-09-13T22:34:16.141Z,4.22
2022-09-13T22:36:43.008Z,4.60
2022-09-13T22:39:14.371Z,4.05
2022-09-13T22:41:41.781Z,4.38
2022-09-13T22:44:08.556Z,3.40
2022-09-13T22:46:38.133Z,3.58
2022-09-13T22:49:05.931Z,3.83
2022-09-13T22:51:33.454Z,3.55
2022-09-13T22:54:04.839Z,3.42
2022-09-13T22:56:35.107Z,3.17
2022-09-13T22:59:13.787Z,3.28
2022-09-13T23:01:40.678Z,4.30
2022-09-13T23:04:07.491Z,4.38
2022-09-13T23:06:34.622Z,4.10
2022-09-13T23:09:03.685Z,4.30
2022-09-13T23:11:35.843Z,3.95
2022-09-13T23:14:05.463Z,3.65
2022-09-13T23:16:35.011Z,3.40
2022-09-13T23:19:01.726Z,3.47
2022-09-13T23:21:32.274Z,4.20
2022-09-13T23:24:00.474Z,3.58
2022-09-13T23:26:27.630Z,3.50
2022-09-13T23:28:56.951Z,4.65
2022-09-13T23:31:26.636Z,4.75
2022-09-13T23:33:56.718Z,3.60
2022-09-13T23:36:26.027Z,3.35
2022-09-13T23:38:55.875Z,3.20
2022-09-13T23:41:23.042Z,3.03
2022-09-13T23:43:49.704Z,3.17
2022-09-13T23:46:17.111Z,2.63
2022-09-13T23:48:44.300Z,2.85
2022-09-13T23:51:20.127Z,3.05
2022-09-13T23:53:47.133Z,2.80
2022-09-13T23:56:14.165Z,2.63
2022-09-13T23:58:41.020Z,2.28
